首页
METAR-TAF:

METAR-TAF

机场 :

倫敦希斯路機場, 英格兰

纬度: 51-29N, 经度: 000-27W, 海拔: 24米

当前天气观测

该预报发布于25分钟前的01:20 UTC
风速6节,风向西
温度 3°C
湿度 81%
气压 1007 hPa
能见度10公里或以上

METAR: EGLL 190120Z AUTO 26006KT 9999 NCD 03/M00 Q1007 NOSIG

时间: 01:45 (01:45 UTC)

预报

该预报发布于2小时和47分钟前的22:58 UTC
预报有效从19日的 00点(UTC)到 20日的 06点(UTC)
风速10节,风向西
能见度10公里或以上
少量云层高于3000英尺
短暂存在
从 20日的 03点(UTC)到 20日的 06点(UTC)
风速3节,风向多变
能見度: 7000
多云层高于600英尺

TAF: EGLL 182258Z 1900/2006 26010KT 9999 FEW030 TEMPO 2003/2006 VRB03KT 7000 RA BKN006

超过4000个机场的气象观测和天气预报(METAR&TAF报告)。

可查询的气象台以黄色和红色小点在地图上表示。

将鼠标移到小点上方,可查看气象台名称。

然后点击查看天气观测和预报。

如需切换地图:点击带黑十字的绿色按钮放大地图;点击带横线的绿色按钮缩小地图;或者点击绿色箭头查看邻近地区的地图。


METAR-TAF: